sensor_id;sensor_type;location;lat;lon;timestamp;P1;durP1;ratioP1;P2;durP2;ratioP2
71806;SDS011;59655;42.590;23.364;2023-12-07T00:01:01;47.47;;;13.43;;
71806;SDS011;59655;42.590;23.364;2023-12-07T00:03:27;26.15;;;10.15;;
71806;SDS011;59655;42.590;23.364;2023-12-07T00:05:52;22.98;;;10.13;;
71806;SDS011;59655;42.590;23.364;2023-12-07T00:08:18;17.23;;;8.27;;
71806;SDS011;59655;42.590;23.364;2023-12-07T00:10:43;17.30;;;7.70;;
71806;SDS011;59655;42.590;23.364;2023-12-07T00:13:08;18.85;;;8.93;;
71806;SDS011;59655;42.590;23.364;2023-12-07T00:15:34;16.40;;;8.40;;
71806;SDS011;59655;42.590;23.364;2023-12-07T00:17:59;19.05;;;8.15;;
71806;SDS011;59655;42.590;23.364;2023-12-07T00:20:25;13.68;;;7.50;;
71806;SDS011;59655;42.590;23.364;2023-12-07T00:22:50;17.65;;;7.95;;
71806;SDS011;59655;42.590;23.364;2023-12-07T00:25:16;21.27;;;9.67;;
71806;SDS011;59655;42.590;23.364;2023-12-07T00:27:41;16.10;;;7.75;;
71806;SDS011;59655;42.590;23.364;2023-12-07T00:30:06;13.77;;;7.90;;
71806;SDS011;59655;42.590;23.364;2023-12-07T00:32:33;17.98;;;9.10;;
71806;SDS011;59655;42.590;23.364;2023-12-07T00:34:58;21.90;;;10.83;;
71806;SDS011;59655;42.590;23.364;2023-12-07T00:37:23;21.42;;;10.18;;
71806;SDS011;59655;42.590;23.364;2023-12-07T00:39:49;23.25;;;12.00;;
71806;SDS011;59655;42.590;23.364;2023-12-07T00:42:14;25.52;;;12.60;;
71806;SDS011;59655;42.590;23.364;2023-12-07T00:44:40;24.45;;;11.98;;
71806;SDS011;59655;42.590;23.364;2023-12-07T00:47:05;23.17;;;12.38;;
71806;SDS011;59655;42.590;23.364;2023-12-07T00:49:31;23.05;;;11.82;;
71806;SDS011;59655;42.590;23.364;2023-12-07T00:51:56;23.25;;;12.55;;
71806;SDS011;59655;42.590;23.364;2023-12-07T00:54:21;26.90;;;12.70;;
71806;SDS011;59655;42.590;23.364;2023-12-07T00:56:47;22.20;;;11.20;;
71806;SDS011;59655;42.590;23.364;2023-12-07T00:59:12;24.17;;;12.15;;
71806;SDS011;59655;42.590;23.364;2023-12-07T01:01:37;23.80;;;11.63;;
71806;SDS011;59655;42.590;23.364;2023-12-07T01:04:04;23.23;;;11.93;;
71806;SDS011;59655;42.590;23.364;2023-12-07T01:06:30;20.60;;;12.10;;
71806;SDS011;59655;42.590;23.364;2023-12-07T01:08:56;28.23;;;12.52;;
71806;SDS011;59655;42.590;23.364;2023-12-07T01:11:21;23.57;;;12.40;;
71806;SDS011;59655;42.590;23.364;2023-12-07T01:13:46;23.55;;;11.48;;
71806;SDS011;59655;42.590;23.364;2023-12-07T01:16:12;21.73;;;11.07;;
71806;SDS011;59655;42.590;23.364;2023-12-07T01:18:37;21.13;;;11.13;;
71806;SDS011;59655;42.590;23.364;2023-12-07T01:21:02;22.47;;;12.00;;
71806;SDS011;59655;42.590;23.364;2023-12-07T01:23:28;18.13;;;9.93;;
71806;SDS011;59655;42.590;23.364;2023-12-07T01:25:53;19.52;;;10.32;;
71806;SDS011;59655;42.590;23.364;2023-12-07T01:28:19;18.35;;;10.57;;
71806;SDS011;59655;42.590;23.364;2023-12-07T01:30:44;20.27;;;11.00;;
71806;SDS011;59655;42.590;23.364;2023-12-07T01:33:09;20.40;;;10.15;;
71806;SDS011;59655;42.590;23.364;2023-12-07T01:35:35;17.63;;;9.35;;
71806;SDS011;59655;42.590;23.364;2023-12-07T01:38:00;17.55;;;8.98;;
71806;SDS011;59655;42.590;23.364;2023-12-07T01:40:25;17.73;;;9.48;;
71806;SDS011;59655;42.590;23.364;2023-12-07T01:42:53;16.70;;;9.70;;
71806;SDS011;59655;42.590;23.364;2023-12-07T01:45:19;17.10;;;9.18;;
71806;SDS011;59655;42.590;23.364;2023-12-07T01:47:45;25.33;;;11.93;;
71806;SDS011;59655;42.590;23.364;2023-12-07T01:50:12;27.83;;;11.25;;
71806;SDS011;59655;42.590;23.364;2023-12-07T01:52:44;21.13;;;9.13;;
71806;SDS011;59655;42.590;23.364;2023-12-07T01:55:12;15.77;;;7.65;;
71806;SDS011;59655;42.590;23.364;2023-12-07T01:57:39;15.60;;;7.47;;
71806;SDS011;59655;42.590;23.364;2023-12-07T02:00:05;17.88;;;9.00;;
71806;SDS011;59655;42.590;23.364;2023-12-07T02:02:32;18.48;;;8.77;;
71806;SDS011;59655;42.590;23.364;2023-12-07T02:04:57;15.05;;;7.63;;
71806;SDS011;59655;42.590;23.364;2023-12-07T02:07:23;17.77;;;7.95;;
71806;SDS011;59655;42.590;23.364;2023-12-07T02:09:49;14.57;;;6.35;;
71806;SDS011;59655;42.590;23.364;2023-12-07T02:12:14;16.05;;;7.63;;
71806;SDS011;59655;42.590;23.364;2023-12-07T02:14:39;16.70;;;7.55;;
71806;SDS011;59655;42.590;23.364;2023-12-07T02:22:18;19.08;;;8.80;;
71806;SDS011;59655;42.590;23.364;2023-12-07T02:25:04;23.77;;;9.75;;
71806;SDS011;59655;42.590;23.364;2023-12-07T02:27:37;18.27;;;9.02;;
71806;SDS011;59655;42.590;23.364;2023-12-07T02:30:04;21.42;;;9.35;;
71806;SDS011;59655;42.590;23.364;2023-12-07T02:32:32;24.05;;;10.13;;
71806;SDS011;59655;42.590;23.364;2023-12-07T02:34:58;18.90;;;8.90;;
71806;SDS011;59655;42.590;23.364;2023-12-07T02:37:24;19.63;;;9.07;;
71806;SDS011;59655;42.590;23.364;2023-12-07T02:39:53;20.70;;;10.13;;
71806;SDS011;59655;42.590;23.364;2023-12-07T02:42:21;21.70;;;11.05;;
71806;SDS011;59655;42.590;23.364;2023-12-07T02:44:48;22.55;;;10.70;;
71806;SDS011;59655;42.590;23.364;2023-12-07T02:47:15;22.25;;;11.05;;
71806;SDS011;59655;42.590;23.364;2023-12-07T02:49:40;28.70;;;13.00;;
71806;SDS011;59655;42.590;23.364;2023-12-07T02:52:06;26.93;;;13.47;;
71806;SDS011;59655;42.590;23.364;2023-12-07T02:54:31;24.52;;;12.57;;
71806;SDS011;59655;42.590;23.364;2023-12-07T02:56:56;22.92;;;12.10;;
71806;SDS011;59655;42.590;23.364;2023-12-07T02:59:22;24.70;;;12.60;;
71806;SDS011;59655;42.590;23.364;2023-12-07T03:01:47;26.43;;;14.57;;
71806;SDS011;59655;42.590;23.364;2023-12-07T03:04:12;21.60;;;12.90;;
71806;SDS011;59655;42.590;23.364;2023-12-07T03:06:37;24.30;;;13.47;;
71806;SDS011;59655;42.590;23.364;2023-12-07T03:09:03;24.47;;;14.57;;
71806;SDS011;59655;42.590;23.364;2023-12-07T03:11:28;27.38;;;16.90;;
71806;SDS011;59655;42.590;23.364;2023-12-07T03:13:53;22.83;;;14.00;;
71806;SDS011;59655;42.590;23.364;2023-12-07T03:16:19;22.83;;;13.68;;
71806;SDS011;59655;42.590;23.364;2023-12-07T03:18:44;32.73;;;17.43;;
71806;SDS011;59655;42.590;23.364;2023-12-07T03:21:09;27.38;;;15.40;;
71806;SDS011;59655;42.590;23.364;2023-12-07T03:23:35;23.15;;;13.00;;
71806;SDS011;59655;42.590;23.364;2023-12-07T03:26:01;22.88;;;12.90;;
71806;SDS011;59655;42.590;23.364;2023-12-07T03:28:26;18.15;;;9.70;;
71806;SDS011;59655;42.590;23.364;2023-12-07T03:30:51;21.63;;;11.77;;
71806;SDS011;59655;42.590;23.364;2023-12-07T03:33:17;24.90;;;11.90;;
71806;SDS011;59655;42.590;23.364;2023-12-07T03:35:42;22.30;;;10.98;;
71806;SDS011;59655;42.590;23.364;2023-12-07T03:38:08;25.13;;;11.10;;
71806;SDS011;59655;42.590;23.364;2023-12-07T03:40:33;25.02;;;10.25;;
71806;SDS011;59655;42.590;23.364;2023-12-07T03:42:58;22.93;;;10.83;;
71806;SDS011;59655;42.590;23.364;2023-12-07T03:45:24;28.10;;;11.98;;
71806;SDS011;59655;42.590;23.364;2023-12-07T03:47:49;30.10;;;12.88;;
71806;SDS011;59655;42.590;23.364;2023-12-07T03:50:15;30.83;;;13.07;;
71806;SDS011;59655;42.590;23.364;2023-12-07T03:52:40;33.22;;;15.15;;
71806;SDS011;59655;42.590;23.364;2023-12-07T03:55:06;32.75;;;13.63;;
71806;SDS011;59655;42.590;23.364;2023-12-07T03:57:31;34.70;;;14.77;;
71806;SDS011;59655;42.590;23.364;2023-12-07T03:59:57;34.20;;;14.93;;
71806;SDS011;59655;42.590;23.364;2023-12-07T04:02:22;37.78;;;15.35;;
71806;SDS011;59655;42.590;23.364;2023-12-07T04:04:47;40.17;;;16.10;;
71806;SDS011;59655;42.590;23.364;2023-12-07T04:07:13;35.00;;;15.77;;
71806;SDS011;59655;42.590;23.364;2023-12-07T04:09:38;37.85;;;14.77;;
71806;SDS011;59655;42.590;23.364;2023-12-07T04:12:03;37.20;;;15.37;;
71806;SDS011;59655;42.590;23.364;2023-12-07T04:14:29;40.38;;;15.73;;
71806;SDS011;59655;42.590;23.364;2023-12-07T04:16:54;39.33;;;15.45;;
71806;SDS011;59655;42.590;23.364;2023-12-07T04:19:20;52.22;;;18.65;;
71806;SDS011;59655;42.590;23.364;2023-12-07T04:21:45;47.80;;;16.75;;
71806;SDS011;59655;42.590;23.364;2023-12-07T04:24:10;43.15;;;16.88;;
71806;SDS011;59655;42.590;23.364;2023-12-07T04:26:36;44.80;;;16.92;;
71806;SDS011;59655;42.590;23.364;2023-12-07T04:29:02;44.70;;;17.20;;
71806;SDS011;59655;42.590;23.364;2023-12-07T04:31:27;62.23;;;18.17;;
71806;SDS011;59655;42.590;23.364;2023-12-07T04:33:52;45.05;;;17.65;;
71806;SDS011;59655;42.590;23.364;2023-12-07T04:36:18;85.35;;;18.77;;
71806;SDS011;59655;42.590;23.364;2023-12-07T04:38:43;45.53;;;18.00;;
71806;SDS011;59655;42.590;23.364;2023-12-07T04:41:08;41.15;;;16.85;;
71806;SDS011;59655;42.590;23.364;2023-12-07T04:43:33;43.83;;;17.73;;
71806;SDS011;59655;42.590;23.364;2023-12-07T04:45:59;54.60;;;16.53;;
71806;SDS011;59655;42.590;23.364;2023-12-07T04:48:24;48.58;;;17.23;;
71806;SDS011;59655;42.590;23.364;2023-12-07T04:50:50;51.78;;;20.10;;
71806;SDS011;59655;42.590;23.364;2023-12-07T05:10:11;59.53;;;25.02;;
71806;SDS011;59655;42.590;23.364;2023-12-07T05:12:36;69.88;;;26.65;;
71806;SDS011;59655;42.590;23.364;2023-12-07T05:15:02;49.80;;;21.40;;
71806;SDS011;59655;42.590;23.364;2023-12-07T05:17:29;42.30;;;16.85;;
71806;SDS011;59655;42.590;23.364;2023-12-07T05:19:54;42.97;;;15.30;;
71806;SDS011;59655;42.590;23.364;2023-12-07T05:22:20;40.97;;;16.93;;
71806;SDS011;59655;42.590;23.364;2023-12-07T05:24:46;46.92;;;16.20;;
71806;SDS011;59655;42.590;23.364;2023-12-07T05:27:11;36.78;;;14.23;;
71806;SDS011;59655;42.590;23.364;2023-12-07T05:29:37;37.13;;;14.50;;
71806;SDS011;59655;42.590;23.364;2023-12-07T05:32:03;42.38;;;15.10;;
71806;SDS011;59655;42.590;23.364;2023-12-07T05:34:29;40.65;;;15.55;;
71806;SDS011;59655;42.590;23.364;2023-12-07T05:36:54;38.30;;;14.07;;
71806;SDS011;59655;42.590;23.364;2023-12-07T05:39:19;38.45;;;15.07;;
71806;SDS011;59655;42.590;23.364;2023-12-07T05:41:45;44.53;;;14.57;;
71806;SDS011;59655;42.590;23.364;2023-12-07T05:44:11;42.80;;;14.95;;
71806;SDS011;59655;42.590;23.364;2023-12-07T05:46:37;40.33;;;14.57;;
71806;SDS011;59655;42.590;23.364;2023-12-07T05:49:03;24.85;;;9.80;;
71806;SDS011;59655;42.590;23.364;2023-12-07T05:51:29;30.13;;;11.20;;
71806;SDS011;59655;42.590;23.364;2023-12-07T05:53:54;27.95;;;11.32;;
71806;SDS011;59655;42.590;23.364;2023-12-07T05:56:20;34.95;;;12.68;;
71806;SDS011;59655;42.590;23.364;2023-12-07T05:58:45;38.53;;;13.60;;
71806;SDS011;59655;42.590;23.364;2023-12-07T06:01:11;44.88;;;17.85;;
71806;SDS011;59655;42.590;23.364;2023-12-07T06:03:36;37.97;;;15.50;;
71806;SDS011;59655;42.590;23.364;2023-12-07T06:06:01;49.27;;;16.33;;
71806;SDS011;59655;42.590;23.364;2023-12-07T06:08:27;47.70;;;17.48;;
71806;SDS011;59655;42.590;23.364;2023-12-07T06:10:52;48.85;;;17.10;;
71806;SDS011;59655;42.590;23.364;2023-12-07T06:13:17;50.73;;;18.97;;
71806;SDS011;59655;42.590;23.364;2023-12-07T06:15:44;48.72;;;17.65;;
71806;SDS011;59655;42.590;23.364;2023-12-07T06:18:09;53.33;;;17.48;;
71806;SDS011;59655;42.590;23.364;2023-12-07T06:20:35;61.22;;;16.17;;
71806;SDS011;59655;42.590;23.364;2023-12-07T06:23:00;35.83;;;14.63;;
71806;SDS011;59655;42.590;23.364;2023-12-07T06:25:27;45.03;;;15.70;;
71806;SDS011;59655;42.590;23.364;2023-12-07T06:27:52;45.80;;;14.90;;
71806;SDS011;59655;42.590;23.364;2023-12-07T06:30:19;39.65;;;14.20;;
71806;SDS011;59655;42.590;23.364;2023-12-07T06:32:44;45.88;;;15.20;;
71806;SDS011;59655;42.590;23.364;2023-12-07T06:35:13;44.38;;;15.05;;
71806;SDS011;59655;42.590;23.364;2023-12-07T06:37:38;52.30;;;16.85;;
71806;SDS011;59655;42.590;23.364;2023-12-07T06:40:06;43.50;;;16.20;;
71806;SDS011;59655;42.590;23.364;2023-12-07T06:42:34;51.45;;;18.25;;
71806;SDS011;59655;42.590;23.364;2023-12-07T06:45:00;47.38;;;16.27;;
71806;SDS011;59655;42.590;23.364;2023-12-07T06:47:25;43.65;;;14.85;;
71806;SDS011;59655;42.590;23.364;2023-12-07T06:49:50;53.22;;;17.42;;
71806;SDS011;59655;42.590;23.364;2023-12-07T06:52:15;67.87;;;18.03;;
71806;SDS011;59655;42.590;23.364;2023-12-07T06:54:41;61.00;;;20.02;;
71806;SDS011;59655;42.590;23.364;2023-12-07T06:57:06;59.70;;;19.10;;
71806;SDS011;59655;42.590;23.364;2023-12-07T06:59:32;59.90;;;17.70;;
71806;SDS011;59655;42.590;23.364;2023-12-07T07:01:58;56.97;;;17.10;;
71806;SDS011;59655;42.590;23.364;2023-12-07T07:04:23;54.63;;;17.63;;
71806;SDS011;59655;42.590;23.364;2023-12-07T07:06:48;66.05;;;21.05;;
71806;SDS011;59655;42.590;23.364;2023-12-07T07:09:14;60.50;;;20.48;;
71806;SDS011;59655;42.590;23.364;2023-12-07T07:11:40;57.47;;;19.58;;
71806;SDS011;59655;42.590;23.364;2023-12-07T07:14:06;58.83;;;19.05;;
71806;SDS011;59655;42.590;23.364;2023-12-07T07:16:31;62.67;;;20.80;;
71806;SDS011;59655;42.590;23.364;2023-12-07T07:18:57;67.18;;;23.02;;
71806;SDS011;59655;42.590;23.364;2023-12-07T07:21:23;61.83;;;23.02;;
71806;SDS011;59655;42.590;23.364;2023-12-07T07:23:48;56.40;;;21.30;;
71806;SDS011;59655;42.590;23.364;2023-12-07T07:26:14;51.03;;;19.65;;
71806;SDS011;59655;42.590;23.364;2023-12-07T07:28:42;59.80;;;22.60;;
71806;SDS011;59655;42.590;23.364;2023-12-07T07:31:08;59.65;;;22.80;;
71806;SDS011;59655;42.590;23.364;2023-12-07T07:33:33;55.70;;;21.97;;
71806;SDS011;59655;42.590;23.364;2023-12-07T07:35:58;46.15;;;19.70;;
71806;SDS011;59655;42.590;23.364;2023-12-07T07:38:24;21.10;;;11.07;;
71806;SDS011;59655;42.590;23.364;2023-12-07T07:40:49;19.92;;;9.10;;
71806;SDS011;59655;42.590;23.364;2023-12-07T07:43:15;20.58;;;8.32;;
71806;SDS011;59655;42.590;23.364;2023-12-07T07:45:40;15.23;;;7.43;;
71806;SDS011;59655;42.590;23.364;2023-12-07T07:48:05;14.63;;;8.00;;
71806;SDS011;59655;42.590;23.364;2023-12-07T07:50:31;16.90;;;8.15;;
71806;SDS011;59655;42.590;23.364;2023-12-07T07:53:00;15.80;;;9.40;;
71806;SDS011;59655;42.590;23.364;2023-12-07T07:55:26;84.97;;;37.92;;
71806;SDS011;59655;42.590;23.364;2023-12-07T07:57:51;107.95;;;49.00;;
71806;SDS011;59655;42.590;23.364;2023-12-07T08:00:17;286.17;;;109.03;;
71806;SDS011;59655;42.590;23.364;2023-12-07T08:02:42;45.45;;;20.90;;
71806;SDS011;59655;42.590;23.364;2023-12-07T08:05:08;30.63;;;13.20;;
71806;SDS011;59655;42.590;23.364;2023-12-07T08:07:34;29.13;;;15.32;;
71806;SDS011;59655;42.590;23.364;2023-12-07T08:09:59;25.60;;;13.27;;
71806;SDS011;59655;42.590;23.364;2023-12-07T08:12:24;26.97;;;13.43;;
71806;SDS011;59655;42.590;23.364;2023-12-07T08:14:50;33.90;;;15.98;;
71806;SDS011;59655;42.590;23.364;2023-12-07T08:17:17;31.88;;;16.50;;
71806;SDS011;59655;42.590;23.364;2023-12-07T08:19:44;27.88;;;14.38;;
71806;SDS011;59655;42.590;23.364;2023-12-07T08:22:10;30.48;;;14.70;;
71806;SDS011;59655;42.590;23.364;2023-12-07T08:24:35;26.95;;;14.45;;
71806;SDS011;59655;42.590;23.364;2023-12-07T08:27:03;25.60;;;12.80;;
71806;SDS011;59655;42.590;23.364;2023-12-07T08:29:30;23.25;;;11.00;;
71806;SDS011;59655;42.590;23.364;2023-12-07T08:31:55;59.45;;;14.30;;
71806;SDS011;59655;42.590;23.364;2023-12-07T08:34:20;28.83;;;12.00;;
71806;SDS011;59655;42.590;23.364;2023-12-07T08:36:46;22.40;;;11.43;;
71806;SDS011;59655;42.590;23.364;2023-12-07T08:39:11;44.20;;;12.35;;
71806;SDS011;59655;42.590;23.364;2023-12-07T08:41:36;43.28;;;12.82;;
71806;SDS011;59655;42.590;23.364;2023-12-07T08:44:02;26.17;;;12.77;;
71806;SDS011;59655;42.590;23.364;2023-12-07T08:46:27;26.10;;;12.95;;
71806;SDS011;59655;42.590;23.364;2023-12-07T08:48:53;42.45;;;11.57;;
71806;SDS011;59655;42.590;23.364;2023-12-07T08:51:19;29.63;;;12.25;;
71806;SDS011;59655;42.590;23.364;2023-12-07T08:53:44;18.20;;;10.07;;
71806;SDS011;59655;42.590;23.364;2023-12-07T08:56:10;36.55;;;10.25;;
71806;SDS011;59655;42.590;23.364;2023-12-07T08:58:37;25.33;;;9.43;;
71806;SDS011;59655;42.590;23.364;2023-12-07T09:01:03;60.22;;;11.63;;
71806;SDS011;59655;42.590;23.364;2023-12-07T09:03:28;17.00;;;8.95;;
71806;SDS011;59655;42.590;23.364;2023-12-07T09:05:56;111.60;;;11.02;;
71806;SDS011;59655;42.590;23.364;2023-12-07T09:08:25;13.63;;;7.85;;
71806;SDS011;59655;42.590;23.364;2023-12-07T09:10:50;11.65;;;6.70;;
71806;SDS011;59655;42.590;23.364;2023-12-07T09:13:16;15.05;;;8.00;;
71806;SDS011;59655;42.590;23.364;2023-12-07T09:15:42;32.70;;;7.60;;
71806;SDS011;59655;42.590;23.364;2023-12-07T09:18:08;22.17;;;6.35;;
71806;SDS011;59655;42.590;23.364;2023-12-07T09:20:33;15.32;;;7.03;;
71806;SDS011;59655;42.590;23.364;2023-12-07T09:22:58;11.32;;;6.30;;
71806;SDS011;59655;42.590;23.364;2023-12-07T09:25:24;11.65;;;6.97;;
71806;SDS011;59655;42.590;23.364;2023-12-07T09:27:52;11.57;;;6.72;;
71806;SDS011;59655;42.590;23.364;2023-12-07T09:30:18;8.50;;;5.38;;
71806;SDS011;59655;42.590;23.364;2023-12-07T09:32:44;8.27;;;4.88;;
71806;SDS011;59655;42.590;23.364;2023-12-07T09:35:09;7.32;;;4.95;;
71806;SDS011;59655;42.590;23.364;2023-12-07T09:37:40;9.18;;;5.03;;
71806;SDS011;59655;42.590;23.364;2023-12-07T09:40:07;8.95;;;5.15;;
71806;SDS011;59655;42.590;23.364;2023-12-07T09:42:33;9.07;;;4.97;;
71806;SDS011;59655;42.590;23.364;2023-12-07T09:44:58;6.97;;;3.97;;
71806;SDS011;59655;42.590;23.364;2023-12-07T09:47:26;6.47;;;3.78;;
71806;SDS011;59655;42.590;23.364;2023-12-07T09:49:52;4.75;;;2.53;;
71806;SDS011;59655;42.590;23.364;2023-12-07T09:52:18;5.28;;;3.08;;
71806;SDS011;59655;42.590;23.364;2023-12-07T09:54:46;4.72;;;3.10;;
71806;SDS011;59655;42.590;23.364;2023-12-07T09:57:12;5.07;;;2.85;;
71806;SDS011;59655;42.590;23.364;2023-12-07T09:59:37;5.30;;;2.50;;
71806;SDS011;59655;42.590;23.364;2023-12-07T10:02:04;4.55;;;2.42;;
71806;SDS011;59655;42.590;23.364;2023-12-07T10:04:31;3.92;;;2.53;;
71806;SDS011;59655;42.590;23.364;2023-12-07T10:06:56;4.63;;;2.40;;
71806;SDS011;59655;42.590;23.364;2023-12-07T10:09:22;4.40;;;2.33;;
71806;SDS011;59655;42.590;23.364;2023-12-07T10:11:48;3.53;;;2.17;;
71806;SDS011;59655;42.590;23.364;2023-12-07T10:14:14;4.00;;;2.53;;
71806;SDS011;59655;42.590;23.364;2023-12-07T10:16:51;3.90;;;2.40;;
71806;SDS011;59655;42.590;23.364;2023-12-07T10:19:18;4.75;;;3.10;;
71806;SDS011;59655;42.590;23.364;2023-12-07T10:21:46;4.28;;;2.83;;
71806;SDS011;59655;42.590;23.364;2023-12-07T10:24:12;4.45;;;2.75;;
71806;SDS011;59655;42.590;23.364;2023-12-07T10:26:39;4.32;;;2.65;;
71806;SDS011;59655;42.590;23.364;2023-12-07T10:29:05;4.40;;;2.58;;
71806;SDS011;59655;42.590;23.364;2023-12-07T10:31:31;4.25;;;1.88;;
71806;SDS011;59655;42.590;23.364;2023-12-07T10:33:58;2.45;;;1.77;;
71806;SDS011;59655;42.590;23.364;2023-12-07T10:36:24;3.20;;;1.63;;
71806;SDS011;59655;42.590;23.364;2023-12-07T10:38:50;3.22;;;1.70;;
71806;SDS011;59655;42.590;23.364;2023-12-07T10:41:19;3.88;;;1.95;;
71806;SDS011;59655;42.590;23.364;2023-12-07T10:43:48;3.50;;;1.55;;
71806;SDS011;59655;42.590;23.364;2023-12-07T10:46:16;2.90;;;1.60;;
71806;SDS011;59655;42.590;23.364;2023-12-07T10:48:44;2.33;;;1.50;;
71806;SDS011;59655;42.590;23.364;2023-12-07T10:51:12;2.63;;;1.50;;
71806;SDS011;59655;42.590;23.364;2023-12-07T10:53:45;2.70;;;1.13;;
71806;SDS011;59655;42.590;23.364;2023-12-07T10:58:41;2.08;;;1.20;;
71806;SDS011;59655;42.590;23.364;2023-12-07T11:01:08;2.83;;;1.42;;
71806;SDS011;59655;42.590;23.364;2023-12-07T11:03:34;2.63;;;1.50;;
71806;SDS011;59655;42.590;23.364;2023-12-07T11:06:02;3.53;;;1.80;;
71806;SDS011;59655;42.590;23.364;2023-12-07T11:08:42;4.50;;;2.28;;
71806;SDS011;59655;42.590;23.364;2023-12-07T11:11:15;4.10;;;2.60;;
71806;SDS011;59655;42.590;23.364;2023-12-07T11:13:47;4.10;;;2.47;;
71806;SDS011;59655;42.590;23.364;2023-12-07T11:16:17;3.33;;;2.00;;
71806;SDS011;59655;42.590;23.364;2023-12-07T11:18:53;2.67;;;1.60;;
71806;SDS011;59655;42.590;23.364;2023-12-07T11:21:19;2.63;;;1.80;;
71806;SDS011;59655;42.590;23.364;2023-12-07T11:23:44;2.55;;;1.10;;
71806;SDS011;59655;42.590;23.364;2023-12-07T11:26:09;2.40;;;0.88;;
71806;SDS011;59655;42.590;23.364;2023-12-07T11:28:35;2.92;;;1.02;;
71806;SDS011;59655;42.590;23.364;2023-12-07T11:33:29;2.10;;;0.88;;
71806;SDS011;59655;42.590;23.364;2023-12-07T11:38:33;2.65;;;1.10;;
71806;SDS011;59655;42.590;23.364;2023-12-07T11:41:01;2.95;;;1.30;;
71806;SDS011;59655;42.590;23.364;2023-12-07T11:46:03;2.33;;;1.40;;
71806;SDS011;59655;42.590;23.364;2023-12-07T11:48:29;2.20;;;0.90;;
71806;SDS011;59655;42.590;23.364;2023-12-07T11:53:24;4.75;;;1.73;;
71806;SDS011;59655;42.590;23.364;2023-12-07T11:55:55;3.30;;;1.33;;
71806;SDS011;59655;42.590;23.364;2023-12-07T11:58:22;2.50;;;1.13;;
71806;SDS011;59655;42.590;23.364;2023-12-07T12:00:50;3.10;;;1.40;;
71806;SDS011;59655;42.590;23.364;2023-12-07T12:03:16;1.88;;;1.00;;
71806;SDS011;59655;42.590;23.364;2023-12-07T12:05:42;2.22;;;0.90;;
71806;SDS011;59655;42.590;23.364;2023-12-07T12:08:08;2.83;;;1.20;;
71806;SDS011;59655;42.590;23.364;2023-12-07T12:10:34;2.47;;;1.20;;
71806;SDS011;59655;42.590;23.364;2023-12-07T12:13:03;1.70;;;1.10;;
71806;SDS011;59655;42.590;23.364;2023-12-07T12:15:29;1.83;;;1.05;;
71806;SDS011;59655;42.590;23.364;2023-12-07T12:17:56;2.28;;;1.10;;
71806;SDS011;59655;42.590;23.364;2023-12-07T12:20:21;1.88;;;0.80;;
71806;SDS011;59655;42.590;23.364;2023-12-07T12:22:47;2.88;;;1.23;;
71806;SDS011;59655;42.590;23.364;2023-12-07T12:25:12;2.10;;;0.90;;
71806;SDS011;59655;42.590;23.364;2023-12-07T12:27:38;2.35;;;1.00;;
71806;SDS011;59655;42.590;23.364;2023-12-07T12:30:05;1.83;;;1.00;;
71806;SDS011;59655;42.590;23.364;2023-12-07T12:32:44;1.90;;;0.90;;
71806;SDS011;59655;42.590;23.364;2023-12-07T12:35:09;1.63;;;0.98;;
71806;SDS011;59655;42.590;23.364;2023-12-07T12:37:36;1.70;;;0.90;;
71806;SDS011;59655;42.590;23.364;2023-12-07T12:40:06;1.92;;;0.98;;
71806;SDS011;59655;42.590;23.364;2023-12-07T12:42:32;2.22;;;1.23;;
71806;SDS011;59655;42.590;23.364;2023-12-07T12:44:58;2.30;;;1.13;;
71806;SDS011;59655;42.590;23.364;2023-12-07T12:47:24;3.17;;;1.70;;
71806;SDS011;59655;42.590;23.364;2023-12-07T12:49:49;1.75;;;1.10;;
71806;SDS011;59655;42.590;23.364;2023-12-07T12:52:15;1.75;;;0.90;;
71806;SDS011;59655;42.590;23.364;2023-12-07T12:54:45;2.08;;;1.17;;
71806;SDS011;59655;42.590;23.364;2023-12-07T12:57:10;4.75;;;1.40;;
71806;SDS011;59655;42.590;23.364;2023-12-07T12:59:36;1.67;;;1.00;;
71806;SDS011;59655;42.590;23.364;2023-12-07T13:02:04;2.05;;;1.02;;
71806;SDS011;59655;42.590;23.364;2023-12-07T13:06:55;2.08;;;1.02;;
71806;SDS011;59655;42.590;23.364;2023-12-07T13:09:21;2.03;;;0.88;;
71806;SDS011;59655;42.590;23.364;2023-12-07T13:11:46;2.35;;;1.30;;
71806;SDS011;59655;42.590;23.364;2023-12-07T13:14:12;2.80;;;1.65;;
71806;SDS011;59655;42.590;23.364;2023-12-07T13:16:38;3.03;;;1.30;;
71806;SDS011;59655;42.590;23.364;2023-12-07T13:19:03;2.08;;;1.10;;
71806;SDS011;59655;42.590;23.364;2023-12-07T13:21:28;3.03;;;1.15;;
71806;SDS011;59655;42.590;23.364;2023-12-07T13:23:55;2.30;;;1.27;;
71806;SDS011;59655;42.590;23.364;2023-12-07T13:26:22;2.00;;;1.05;;
71806;SDS011;59655;42.590;23.364;2023-12-07T13:28:48;2.65;;;1.60;;
71806;SDS011;59655;42.590;23.364;2023-12-07T13:31:13;2.42;;;1.23;;
71806;SDS011;59655;42.590;23.364;2023-12-07T13:33:39;3.72;;;1.60;;
71806;SDS011;59655;42.590;23.364;2023-12-07T13:36:05;3.40;;;1.33;;
71806;SDS011;59655;42.590;23.364;2023-12-07T13:38:31;49.70;;;21.95;;
71806;SDS011;59655;42.590;23.364;2023-12-07T13:40:56;7.47;;;3.55;;
71806;SDS011;59655;42.590;23.364;2023-12-07T13:43:22;3.25;;;1.85;;
71806;SDS011;59655;42.590;23.364;2023-12-07T13:45:49;3.22;;;1.55;;
71806;SDS011;59655;42.590;23.364;2023-12-07T13:48:15;3.63;;;1.60;;
71806;SDS011;59655;42.590;23.364;2023-12-07T13:50:40;3.00;;;1.73;;
71806;SDS011;59655;42.590;23.364;2023-12-07T13:53:06;3.08;;;1.70;;
71806;SDS011;59655;42.590;23.364;2023-12-07T13:55:35;2.92;;;1.83;;
71806;SDS011;59655;42.590;23.364;2023-12-07T13:58:02;3.47;;;2.28;;
71806;SDS011;59655;42.590;23.364;2023-12-07T14:00:27;3.38;;;1.70;;
71806;SDS011;59655;42.590;23.364;2023-12-07T14:02:53;2.30;;;1.58;;
71806;SDS011;59655;42.590;23.364;2023-12-07T14:05:18;3.35;;;1.80;;
71806;SDS011;59655;42.590;23.364;2023-12-07T14:07:44;3.38;;;1.40;;
71806;SDS011;59655;42.590;23.364;2023-12-07T14:10:10;3.05;;;1.77;;
71806;SDS011;59655;42.590;23.364;2023-12-07T14:12:36;3.20;;;1.70;;
71806;SDS011;59655;42.590;23.364;2023-12-07T14:15:02;3.95;;;1.73;;
71806;SDS011;59655;42.590;23.364;2023-12-07T14:17:28;4.05;;;1.80;;
71806;SDS011;59655;42.590;23.364;2023-12-07T14:20:02;55.05;;;22.95;;
71806;SDS011;59655;42.590;23.364;2023-12-07T14:22:32;4.82;;;2.58;;
71806;SDS011;59655;42.590;23.364;2023-12-07T14:24:58;3.97;;;2.10;;
71806;SDS011;59655;42.590;23.364;2023-12-07T14:27:23;3.95;;;2.47;;
71806;SDS011;59655;42.590;23.364;2023-12-07T14:29:49;4.80;;;2.35;;
71806;SDS011;59655;42.590;23.364;2023-12-07T14:32:14;4.68;;;2.33;;
71806;SDS011;59655;42.590;23.364;2023-12-07T14:34:40;6.88;;;2.50;;
71806;SDS011;59655;42.590;23.364;2023-12-07T14:37:06;4.78;;;2.38;;
71806;SDS011;59655;42.590;23.364;2023-12-07T14:39:33;5.07;;;2.30;;
71806;SDS011;59655;42.590;23.364;2023-12-07T14:41:59;4.65;;;2.75;;
71806;SDS011;59655;42.590;23.364;2023-12-07T14:44:24;4.38;;;2.22;;
71806;SDS011;59655;42.590;23.364;2023-12-07T14:46:50;4.05;;;2.40;;
71806;SDS011;59655;42.590;23.364;2023-12-07T14:49:16;4.03;;;2.40;;